Time;durP1;ratioP1;P1;durP2;ratioP2;P2;SDS_P1;SDS_P2;PMS_P1;PMS_P2;Temp;Humidity;BMP_temperature;BMP_pressure;BME280_temperature;BME280_humidity;BME280_pressure;Samples;Min_cycle;Max_cycle;Signal;HPM_P1;HPM_P2
2023/09/16 00:01:02;;;;;;;6.93;3.50;;;19.40;99.90;;;;;;6160694;23;20074;-78
2023/09/16 00:03:29;;;;;;;5.95;4.20;;;19.40;99.90;;;;;;6160306;23;20009;-77
2023/09/16 00:05:58;;;;;;;5.80;3.35;;;19.40;99.90;;;;;;6173654;23;20021;-77
2023/09/16 00:08:26;;;;;;;5.97;3.35;;;19.40;99.90;;;;;;6150299;23;20873;-77
2023/09/16 00:10:53;;;;;;;6.78;3.35;;;19.40;99.90;;;;;;6173080;23;20075;-78
2023/09/16 00:13:21;;;;;;;7.93;3.20;;;19.30;99.90;;;;;;6172676;23;20060;-78
2023/09/16 00:15:50;;;;;;;7.00;2.90;;;19.30;99.90;;;;;;6160537;23;20105;-77
2023/09/16 00:18:17;;;;;;;5.25;3.30;;;19.20;99.90;;;;;;6173502;23;20100;-79
2023/09/16 00:20:48;;;;;;;5.50;3.47;;;19.10;99.90;;;;;;6174057;23;20040;-77
2023/09/16 00:23:16;;;;;;;4.28;3.10;;;19.00;99.90;;;;;;6154607;23;20042;-77
2023/09/16 00:25:43;;;;;;;8.98;3.38;;;19.10;99.90;;;;;;6157074;23;20076;-78
2023/09/16 00:28:11;;;;;;;4.72;3.20;;;19.10;99.90;;;;;;6159909;23;20029;-78
2023/09/16 00:30:44;;;;;;;4.90;3.40;;;19.20;99.90;;;;;;6173749;23;20021;-79
2023/09/16 00:33:13;;;;;;;5.30;3.58;;;19.20;99.90;;;;;;6148271;23;20436;-80
2023/09/16 00:35:41;;;;;;;6.53;3.53;;;19.30;99.90;;;;;;6173900;23;20330;-79
2023/09/16 00:38:08;;;;;;;5.68;3.70;;;19.30;99.90;;;;;;6174118;23;20332;-78
2023/09/16 00:40:36;;;;;;;6.57;3.85;;;19.30;99.90;;;;;;6161183;23;20502;-79
2023/09/16 00:43:04;;;;;;;5.72;3.38;;;19.30;99.90;;;;;;6179045;23;20041;-77
2023/09/16 00:45:33;;;;;;;6.32;3.80;;;19.20;99.90;;;;;;6153973;23;20014;-78
2023/09/16 00:48:01;;;;;;;6.20;3.65;;;19.20;99.90;;;;;;6186420;23;20109;-78
2023/09/16 00:50:30;;;;;;;14.80;9.90;;;19.20;99.90;;;;;;6188255;23;20025;-77
2023/09/16 00:52:59;;;;;;;6.15;4.20;;;19.10;99.90;;;;;;6158965;23;20025;-77
2023/09/16 00:55:28;;;;;;;6.97;3.42;;;19.20;99.90;;;;;;6173741;23;20603;-78
2023/09/16 00:57:57;;;;;;;6.95;3.65;;;19.20;99.90;;;;;;6161989;23;20026;-78
2023/09/16 01:00:27;;;;;;;9.23;3.80;;;19.20;99.90;;;;;;6173672;23;20101;-79
2023/09/16 01:02:57;;;;;;;4.25;3.30;;;19.20;99.90;;;;;;6154402;23;20022;-79
2023/09/16 01:05:24;;;;;;;6.35;3.85;;;19.30;99.90;;;;;;6196709;23;20049;-77
2023/09/16 01:07:54;;;;;;;5.82;3.78;;;19.30;99.90;;;;;;6198458;23;20097;-77
2023/09/16 01:10:22;;;;;;;4.70;3.58;;;19.30;99.90;;;;;;6183228;23;20010;-77
2023/09/16 01:12:53;;;;;;;6.72;3.55;;;19.30;99.90;;;;;;6186490;23;20018;-79
2023/09/16 01:15:22;;;;;;;5.63;3.50;;;19.20;99.90;;;;;;6196877;23;20053;-79
2023/09/16 01:17:59;;;;;;;5.72;3.35;;;19.20;99.90;;;;;;6191961;23;20018;-78
2023/09/16 01:20:28;;;;;;;5.82;3.55;;;19.20;99.90;;;;;;6197835;23;20021;-78
2023/09/16 01:22:57;;;;;;;5.50;3.40;;;19.20;99.90;;;;;;6180279;23;20069;-78
2023/09/16 01:25:28;;;;;;;5.95;3.70;;;19.20;99.90;;;;;;6198692;23;20045;-79
2023/09/16 01:27:57;;;;;;;4.57;3.70;;;19.10;99.90;;;;;;6199783;23;20014;-79
2023/09/16 01:30:28;;;;;;;9.82;4.22;;;19.10;99.90;;;;;;6197010;23;20077;-79
2023/09/16 01:33:04;;;;;;;6.25;5.13;;;19.10;99.90;;;;;;6159431;23;20028;-78
2023/09/16 01:35:37;;;;;;;6.55;4.03;;;19.00;99.90;;;;;;6174398;23;20100;-78
2023/09/16 01:38:06;;;;;;;7.55;4.88;;;18.90;99.90;;;;;;6152536;23;20462;-79
2023/09/16 01:40:36;;;;;;;6.38;4.50;;;18.80;99.90;;;;;;6179525;23;20029;-78
2023/09/16 01:43:04;;;;;;;7.47;4.25;;;18.80;99.90;;;;;;6168523;23;20326;-76
2023/09/16 01:45:41;;;;;;;5.32;4.07;;;18.70;99.90;;;;;;6149088;23;20018;-78
2023/09/16 01:48:09;;;;;;;6.65;4.25;;;18.70;99.90;;;;;;6172694;23;20048;-77
2023/09/16 01:50:36;;;;;;;5.20;4.03;;;18.70;99.90;;;;;;6173341;23;20024;-76
2023/09/16 01:53:06;;;;;;;7.57;4.30;;;18.70;99.90;;;;;;6172696;23;20273;-79
2023/09/16 01:55:40;;;;;;;7.03;4.30;;;18.70;99.90;;;;;;6173812;23;20026;-76
2023/09/16 01:58:14;;;;;;;6.72;4.65;;;18.80;99.90;;;;;;6174156;23;20021;-77
2023/09/16 02:00:43;;;;;;;6.20;4.68;;;18.90;99.90;;;;;;6174813;23;20045;-76
2023/09/16 02:03:10;;;;;;;6.00;4.15;;;18.90;99.90;;;;;;6173862;23;20100;-77
2023/09/16 02:05:38;;;;;;;7.07;3.97;;;18.80;99.90;;;;;;6173966;23;20057;-78
2023/09/16 02:08:06;;;;;;;6.65;3.88;;;18.70;99.90;;;;;;6174227;23;20050;-78
2023/09/16 02:10:33;;;;;;;5.55;3.88;;;18.70;99.90;;;;;;6173668;23;20028;-79
2023/09/16 02:13:02;;;;;;;6.00;3.88;;;18.70;99.90;;;;;;6174736;23;20043;-77
2023/09/16 02:15:32;;;;;;;5.28;3.97;;;18.90;99.90;;;;;;6176347;23;20120;-77
2023/09/16 02:18:00;;;;;;;10.73;4.63;;;18.80;99.90;;;;;;6154511;23;20021;-76
2023/09/16 02:20:27;;;;;;;6.82;4.45;;;18.70;99.90;;;;;;6150702;23;20026;-77
2023/09/16 02:22:54;;;;;;;7.40;4.57;;;18.60;99.90;;;;;;6156880;23;20018;-78
2023/09/16 02:25:22;;;;;;;8.82;4.70;;;18.50;99.90;;;;;;6150108;23;20022;-78
2023/09/16 02:27:50;;;;;;;8.70;5.05;;;18.50;99.90;;;;;;6175334;23;20469;-79
2023/09/16 02:30:22;;;;;;;6.32;4.30;;;18.40;99.90;;;;;;6174788;23;20048;-76
2023/09/16 02:32:50;;;;;;;7.55;4.75;;;18.40;99.90;;;;;;6173648;23;20021;-77
2023/09/16 02:35:17;;;;;;;6.65;5.43;;;18.30;99.90;;;;;;6178882;23;20097;-78
2023/09/16 02:37:45;;;;;;;8.38;5.70;;;18.30;99.90;;;;;;6179832;23;20327;-78
2023/09/16 02:40:13;;;;;;;8.60;5.60;;;18.40;99.90;;;;;;6190824;23;20048;-76
2023/09/16 02:42:40;;;;;;;7.35;5.35;;;18.50;99.90;;;;;;6179410;23;20021;-78
2023/09/16 02:45:08;;;;;;;8.43;5.50;;;18.50;99.90;;;;;;6182126;23;20031;-78
2023/09/16 02:47:39;;;;;;;9.90;5.70;;;18.50;99.90;;;;;;6178691;23;20021;-77
2023/09/16 02:50:08;;;;;;;6.75;5.32;;;18.50;99.90;;;;;;6153782;23;20112;-78
2023/09/16 02:52:35;;;;;;;9.88;5.63;;;18.50;99.90;;;;;;6180226;23;20032;-80
2023/09/16 02:55:03;;;;;;;9.00;4.32;;;18.60;99.90;;;;;;6179795;23;20021;-77
2023/09/16 02:57:30;;;;;;;5.25;3.95;;;18.60;99.90;;;;;;6192262;23;20017;-78
2023/09/16 02:59:59;;;;;;;5.72;3.80;;;18.60;99.90;;;;;;6179314;23;20071;-77
2023/09/16 03:02:27;;;;;;;6.65;4.00;;;18.60;99.90;;;;;;6154155;23;20044;-78
2023/09/16 03:04:56;;;;;;;7.15;3.88;;;18.60;99.90;;;;;;6186889;23;20027;-78
2023/09/16 03:07:25;;;;;;;4.90;4.15;;;18.70;99.90;;;;;;6178873;23;20458;-79
2023/09/16 03:09:54;;;;;;;6.65;4.40;;;18.70;99.90;;;;;;6179206;23;20079;-77
2023/09/16 03:12:24;;;;;;;4.70;3.83;;;18.70;99.90;;;;;;6178286;23;20021;-77
2023/09/16 03:14:51;;;;;;;5.68;3.63;;;18.70;99.90;;;;;;6178746;23;20128;-76
2023/09/16 03:17:19;;;;;;;6.72;4.03;;;18.70;99.90;;;;;;6184505;23;20329;-78
2023/09/16 03:19:46;;;;;;;6.55;3.30;;;18.70;99.90;;;;;;6178914;23;20021;-78
2023/09/16 03:22:15;;;;;;;5.07;3.30;;;18.60;99.90;;;;;;6188431;23;20325;-79
2023/09/16 03:24:43;;;;;;;8.15;3.42;;;18.60;99.90;;;;;;6179164;23;20107;-77
2023/09/16 03:27:10;;;;;;;5.05;3.83;;;18.60;99.90;;;;;;6179002;23;20394;-79
2023/09/16 03:29:37;;;;;;;5.43;3.25;;;18.60;99.90;;;;;;6178436;23;20028;-78
2023/09/16 03:32:06;;;;;;;6.40;4.13;;;18.60;99.90;;;;;;6178226;23;20091;-76
2023/09/16 03:34:34;;;;;;;5.32;3.67;;;18.60;99.90;;;;;;6179139;23;20044;-79
2023/09/16 03:37:02;;;;;;;5.18;3.30;;;18.50;99.90;;;;;;6174145;23;20021;-78
2023/09/16 03:39:31;;;;;;;5.70;3.22;;;18.60;99.90;;;;;;6160959;23;20088;-78
2023/09/16 03:41:59;;;;;;;4.93;3.50;;;18.60;99.90;;;;;;6173843;23;20100;-78
2023/09/16 03:44:27;;;;;;;5.07;4.00;;;18.60;99.90;;;;;;6173458;23;20458;-77
2023/09/16 03:46:54;;;;;;;8.05;3.50;;;18.60;99.90;;;;;;6149003;23;20026;-79
2023/09/16 03:49:22;;;;;;;5.97;3.45;;;18.50;99.90;;;;;;6173392;23;20442;-77
2023/09/16 03:51:49;;;;;;;4.40;3.10;;;18.50;99.90;;;;;;6174255;23;20045;-78
2023/09/16 03:54:18;;;;;;;4.97;3.30;;;18.50;99.90;;;;;;6173322;23;20021;-78
2023/09/16 03:56:47;;;;;;;5.07;3.65;;;18.50;99.90;;;;;;6173269;23;20025;-80
2023/09/16 03:59:15;;;;;;;6.57;4.32;;;18.50;99.90;;;;;;6173181;23;20037;-78
2023/09/16 04:01:42;;;;;;;5.95;3.85;;;18.50;99.90;;;;;;6148201;23;20025;-78
2023/09/16 04:04:10;;;;;;;7.45;4.10;;;18.60;99.90;;;;;;6173363;23;20084;-77
2023/09/16 04:06:37;;;;;;;8.07;4.07;;;18.60;99.90;;;;;;6161173;23;20013;-77
2023/09/16 04:09:07;;;;;;;7.88;4.25;;;18.60;99.90;;;;;;6173182;23;20037;-77
2023/09/16 04:11:34;;;;;;;7.28;4.07;;;18.60;99.90;;;;;;6173334;23;20575;-77
2023/09/16 04:14:03;;;;;;;5.18;3.80;;;18.60;99.90;;;;;;6172804;23;20053;-77
2023/09/16 04:16:30;;;;;;;5.72;3.83;;;18.50;99.90;;;;;;6158010;23;20484;-77
2023/09/16 04:18:58;;;;;;;6.22;4.00;;;18.40;99.90;;;;;;6173624;23;20021;-78
2023/09/16 04:21:26;;;;;;;7.13;4.03;;;18.40;99.90;;;;;;6173271;23;20049;-77
2023/09/16 04:23:53;;;;;;;5.32;3.60;;;18.40;99.90;;;;;;6172486;23;20033;-78
2023/09/16 04:26:27;;;;;;;6.43;3.97;;;18.50;99.90;;;;;;6154732;23;20060;-78
2023/09/16 04:28:54;;;;;;;5.68;4.05;;;18.40;99.90;;;;;;6172659;23;20021;-77
2023/09/16 04:31:24;;;;;;;7.18;3.97;;;18.40;99.90;;;;;;6173316;23;20084;-76
2023/09/16 04:33:51;;;;;;;7.47;4.10;;;18.40;99.90;;;;;;6148666;23;20100;-77
2023/09/16 04:36:19;;;;;;;7.15;4.68;;;18.40;99.90;;;;;;6172373;23;20092;-78
2023/09/16 04:38:46;;;;;;;7.80;4.97;;;18.60;99.90;;;;;;6173113;23;20104;-78
2023/09/16 04:41:14;;;;;;;7.10;4.55;;;18.50;99.90;;;;;;6172767;23;20362;-77
2023/09/16 04:43:43;;;;;;;18.85;6.20;;;18.50;99.90;;;;;;6172744;23;20049;-77
2023/09/16 04:46:16;;;;;;;9.85;4.80;;;18.50;99.90;;;;;;6172645;23;20080;-77
2023/09/16 04:48:48;;;;;;;7.57;5.65;;;18.50;99.90;;;;;;6173218;23;20071;-76
2023/09/16 04:51:16;;;;;;;9.00;5.20;;;18.60;99.90;;;;;;6172555;23;20439;-77
2023/09/16 04:53:44;;;;;;;9.63;5.35;;;18.70;99.90;;;;;;6172400;23;20485;-78
2023/09/16 04:56:11;;;;;;;6.65;5.13;;;18.70;99.90;;;;;;6148463;23;20115;-79
2023/09/16 04:58:44;;;;;;;6.80;5.13;;;18.70;99.90;;;;;;6173223;23;20045;-76
2023/09/16 05:01:13;;;;;;;9.35;5.22;;;18.70;99.90;;;;;;6172719;23;20315;-76
2023/09/16 05:03:41;;;;;;;7.60;5.93;;;18.60;99.90;;;;;;6172862;23;20438;-79
2023/09/16 05:06:09;;;;;;;8.77;5.88;;;18.60;99.90;;;;;;6172785;23;20021;-78
2023/09/16 05:08:37;;;;;;;9.55;6.07;;;18.50;99.90;;;;;;6148140;23;20026;-79
2023/09/16 05:11:06;;;;;;;11.45;8.32;;;18.50;99.90;;;;;;6174337;23;20048;-78
2023/09/16 05:13:45;;;;;;;10.05;7.50;;;18.50;99.90;;;;;;6172512;23;20342;-77
2023/09/16 05:16:13;;;;;;;11.45;8.68;;;18.60;99.90;;;;;;6172982;23;20488;-77
2023/09/16 05:18:40;;;;;;;11.50;7.68;;;18.70;99.90;;;;;;6174044;23;20033;-78
2023/09/16 05:21:09;;;;;;;12.95;7.72;;;18.70;99.90;;;;;;6173149;23;20072;-76
2023/09/16 05:23:37;;;;;;;8.57;7.25;;;18.70;99.90;;;;;;6171306;23;20032;-79
2023/09/16 05:26:06;;;;;;;8.82;7.25;;;18.70;99.90;;;;;;6172213;23;20124;-78
2023/09/16 05:28:38;;;;;;;10.55;8.05;;;18.80;99.90;;;;;;6173466;23;20033;-77
2023/09/16 05:31:06;;;;;;;13.57;11.63;;;18.70;99.90;;;;;;6148471;23;20022;-78
2023/09/16 05:33:37;;;;;;;10.90;8.63;;;18.60;99.90;;;;;;6173677;23;20041;-78
2023/09/16 05:36:04;;;;;;;11.30;9.20;;;18.60;99.90;;;;;;6172644;23;20025;-79
2023/09/16 05:38:35;;;;;;;12.13;8.70;;;18.60;99.90;;;;;;6173198;23;20017;-78
2023/09/16 05:41:02;;;;;;;13.15;8.77;;;18.60;99.90;;;;;;6147540;23;20037;-79
2023/09/16 05:43:30;;;;;;;16.73;13.98;;;18.60;99.90;;;;;;6172955;23;20470;-77
2023/09/16 05:45:58;;;;;;;14.50;11.23;;;18.50;99.90;;;;;;6149104;23;20123;-78
2023/09/16 05:48:26;;;;;;;18.48;14.52;;;18.50;99.90;;;;;;6174010;23;20017;-78
2023/09/16 05:50:58;;;;;;;18.08;14.10;;;18.50;99.90;;;;;;6150332;23;20624;-76
2023/09/16 05:53:30;;;;;;;20.77;16.35;;;18.50;99.90;;;;;;6175509;23;20037;-79
2023/09/16 05:56:06;;;;;;;14.55;11.57;;;18.60;99.90;;;;;;6150601;23;20029;-77
2023/09/16 05:58:37;;;;;;;12.63;10.57;;;18.50;99.90;;;;;;6175489;23;20454;-76
2023/09/16 06:01:05;;;;;;;16.63;13.05;;;18.50;99.90;;;;;;6175467;23;20446;-77
2023/09/16 06:03:33;;;;;;;16.95;15.27;;;18.60;99.90;;;;;;6175520;23;20033;-79
2023/09/16 06:06:01;;;;;;;14.93;12.75;;;18.60;99.90;;;;;;6154469;23;20022;-77
2023/09/16 06:08:28;;;;;;;14.73;13.13;;;18.70;99.90;;;;;;6155824;23;20210;-77
2023/09/16 06:10:57;;;;;;;15.05;13.18;;;18.70;99.90;;;;;;6175994;23;20033;-76
2023/09/16 06:13:27;;;;;;;20.67;14.95;;;18.80;99.90;;;;;;6174855;23;20198;-78
2023/09/16 06:15:55;;;;;;;16.20;14.50;;;18.90;99.90;;;;;;6161993;23;20027;-78
2023/09/16 06:18:25;;;;;;;12.73;11.23;;;19.00;99.90;;;;;;6149389;23;20029;-77
2023/09/16 06:20:53;;;;;;;16.13;11.32;;;19.20;99.90;;;;;;6175223;23;20495;-79
2023/09/16 06:23:20;;;;;;;13.25;11.65;;;19.30;99.90;;;;;;6173938;23;20017;-80
2023/09/16 06:25:51;;;;;;;9.48;7.72;;;19.40;99.90;;;;;;6149638;23;20489;-80
2023/09/16 06:28:19;;;;;;;9.93;8.13;;;19.50;99.90;;;;;;6174919;23;20014;-77
2023/09/16 06:30:48;;;;;;;10.00;7.57;;;19.60;99.90;;;;;;6179692;23;20032;-78
2023/09/16 06:33:16;;;;;;;10.25;7.70;;;19.60;99.90;;;;;;6174427;23;20361;-79
2023/09/16 06:35:43;;;;;;;11.57;8.05;;;19.60;99.90;;;;;;6174049;23;20022;-78
2023/09/16 06:38:10;;;;;;;11.98;8.75;;;19.70;99.90;;;;;;6156678;23;20045;-79
2023/09/16 06:40:39;;;;;;;12.75;9.48;;;19.80;99.90;;;;;;6174629;23;20030;-79
2023/09/16 06:43:07;;;;;;;12.07;9.15;;;19.80;99.90;;;;;;6175751;23;20045;-77
2023/09/16 06:45:39;;;;;;;13.63;8.27;;;20.00;99.90;;;;;;6175730;23;20077;-77
2023/09/16 06:48:09;;;;;;;17.38;12.25;;;20.10;99.90;;;;;;6174816;23;20029;-78
2023/09/16 06:50:37;;;;;;;15.02;13.40;;;20.10;99.90;;;;;;6155744;23;20036;-79
2023/09/16 06:53:06;;;;;;;16.75;13.10;;;20.10;99.90;;;;;;6173991;23;20091;-76
2023/09/16 06:55:34;;;;;;;13.23;11.90;;;20.10;99.90;;;;;;6175128;23;20098;-77
2023/09/16 06:58:04;;;;;;;13.25;11.88;;;20.00;99.90;;;;;;6160901;23;20041;-77
2023/09/16 07:00:31;;;;;;;14.77;12.88;;;20.00;99.90;;;;;;6151176;23;20347;-78
2023/09/16 07:02:59;;;;;;;14.23;11.93;;;19.90;99.90;;;;;;6174994;23;20034;-76
2023/09/16 07:05:30;;;;;;;14.82;11.93;;;19.90;99.90;;;;;;6175695;23;20045;-77
2023/09/16 07:07:58;;;;;;;16.23;12.13;;;19.90;99.90;;;;;;6174536;23;20112;-79
2023/09/16 07:10:27;;;;;;;10.93;9.85;;;20.10;99.90;;;;;;6159423;23;20033;-78
2023/09/16 07:12:54;;;;;;;14.55;10.68;;;20.10;99.90;;;;;;6174258;23;20045;-78
2023/09/16 07:15:22;;;;;;;12.07;10.57;;;20.20;99.90;;;;;;6160894;23;20026;-77
2023/09/16 07:17:49;;;;;;;13.27;10.13;;;20.30;99.90;;;;;;6154136;23;20021;-77
2023/09/16 07:20:19;;;;;;;13.10;9.95;;;20.40;99.90;;;;;;6174160;23;20638;-77
2023/09/16 07:22:52;;;;;;;12.48;10.43;;;20.40;99.90;;;;;;6157042;23;20021;-77
2023/09/16 07:25:22;;;;;;;12.52;10.23;;;20.60;99.90;;;;;;6159438;23;20147;-77
2023/09/16 07:27:50;;;;;;;10.55;9.45;;;20.60;99.90;;;;;;6175710;23;20018;-78
2023/09/16 07:30:17;;;;;;;16.38;10.52;;;20.70;99.90;;;;;;6155622;23;20021;-78
2023/09/16 07:32:45;;;;;;;12.73;9.90;;;20.80;99.90;;;;;;6158231;23;20025;-76
2023/09/16 07:35:12;;;;;;;12.93;10.07;;;20.90;99.90;;;;;;6179967;23;20096;-78
2023/09/16 07:37:40;;;;;;;11.43;10.25;;;20.90;99.90;;;;;;6157275;23;20028;-79
2023/09/16 07:40:10;;;;;;;27.63;13.68;;;21.00;99.90;;;;;;6180544;23;20083;-78
2023/09/16 07:42:38;;;;;;;10.35;9.25;;;21.00;99.90;;;;;;6181707;23;20340;-77
2023/09/16 07:45:06;;;;;;;14.02;10.30;;;21.00;99.90;;;;;;6182169;23;20028;-80
2023/09/16 07:47:33;;;;;;;11.55;10.35;;;21.00;99.90;;;;;;6203151;23;20077;-79
2023/09/16 07:50:01;;;;;;;10.85;9.15;;;21.00;99.90;;;;;;6202274;23;20029;-81
2023/09/16 07:52:29;;;;;;;11.45;10.20;;;21.00;99.90;;;;;;6210622;23;20036;-79
2023/09/16 07:54:59;;;;;;;11.75;10.10;;;21.00;99.90;;;;;;6213146;23;20078;-78
2023/09/16 07:57:29;;;;;;;12.38;10.27;;;21.00;99.90;;;;;;6165361;23;20024;-79
2023/09/16 07:59:58;;;;;;;12.50;9.82;;;21.10;99.90;;;;;;6183380;23;20051;-78
2023/09/16 08:02:26;;;;;;;12.07;9.45;;;21.10;99.90;;;;;;6179139;23;20341;-77
2023/09/16 08:04:53;;;;;;;10.77;9.35;;;21.10;99.90;;;;;;6179592;23;20047;-76
2023/09/16 08:07:21;;;;;;;12.75;9.85;;;21.10;99.90;;;;;;6179027;23;20029;-77
2023/09/16 08:09:49;;;;;;;11.65;9.45;;;21.10;99.90;;;;;;6180513;23;20013;-78
2023/09/16 08:12:17;;;;;;;11.63;10.15;;;21.00;99.90;;;;;;6179386;23;20100;-78
2023/09/16 08:14:47;;;;;;;12.55;10.75;;;21.00;99.90;;;;;;6178645;23;20088;-79
2023/09/16 08:17:26;;;;;;;14.52;12.43;;;21.10;99.90;;;;;;6179931;23;20425;-77
2023/09/16 08:19:54;;;;;;;15.68;13.20;;;21.00;99.90;;;;;;6155116;23;20025;-79
2023/09/16 08:22:21;;;;;;;12.65;11.32;;;21.10;99.90;;;;;;6179956;23;20051;-80
2023/09/16 08:24:51;;;;;;;11.75;10.50;;;21.10;99.90;;;;;;6180879;23;20108;-78
2023/09/16 08:27:27;;;;;;;12.10;10.82;;;21.20;99.90;;;;;;6155544;23;20358;-77
2023/09/16 08:29:59;;;;;;;13.93;11.65;;;21.30;99.90;;;;;;6179745;23;20017;-77
2023/09/16 08:32:29;;;;;;;15.90;13.25;;;21.30;99.90;;;;;;6180173;23;20048;-77
2023/09/16 08:35:01;;;;;;;14.13;12.63;;;21.30;99.90;;;;;;6187011;23;20274;-78
2023/09/16 08:37:31;;;;;;;20.58;11.40;;;21.30;99.90;;;;;;6179976;23;20362;-80
2023/09/16 08:40:01;;;;;;;12.93;10.63;;;21.40;99.90;;;;;;6180097;23;20450;-75
2023/09/16 08:42:35;;;;;;;14.85;13.15;;;21.50;99.90;;;;;;6151505;23;20505;-77
2023/09/16 08:45:06;;;;;;;12.55;11.25;;;21.60;99.90;;;;;;6179045;23;20025;-77
2023/09/16 08:47:35;;;;;;;11.38;10.27;;;21.80;99.90;;;;;;6178594;23;20024;-79
2023/09/16 08:50:07;;;;;;;12.48;10.85;;;21.90;99.90;;;;;;6178636;23;20044;-78
2023/09/16 08:52:41;;;;;;;12.02;9.98;;;21.90;99.90;;;;;;6178871;23;20484;-78
2023/09/16 08:55:14;;;;;;;12.20;10.18;;;21.90;99.90;;;;;;6179322;23;20013;-78
2023/09/16 08:57:46;;;;;;;11.13;9.93;;;21.80;99.90;;;;;;6179448;23;20017;-77
2023/09/16 09:00:18;;;;;;;10.68;9.57;;;21.80;99.90;;;;;;6177809;23;20025;-76
2023/09/16 09:02:47;;;;;;;12.60;11.30;;;21.90;99.90;;;;;;6182791;23;20021;-77
2023/09/16 09:05:15;;;;;;;12.35;10.77;;;22.10;99.90;;;;;;6178436;23;20346;-79
2023/09/16 09:07:44;;;;;;;13.27;10.60;;;22.30;99.90;;;;;;6178195;23;20404;-76
2023/09/16 09:10:14;;;;;;;15.30;11.43;;;22.40;99.90;;;;;;6178728;23;20021;-78
2023/09/16 09:12:44;;;;;;;13.32;10.35;;;22.60;99.90;;;;;;6154493;23;20021;-79
2023/09/16 09:15:13;;;;;;;15.55;12.10;;;22.90;99.90;;;;;;6179063;23;20017;-79
2023/09/16 09:17:45;;;;;;;11.82;10.30;;;23.20;99.90;;;;;;6179084;23;20051;-79
2023/09/16 09:20:16;;;;;;;12.98;10.57;;;23.50;99.90;;;;;;6178958;23;20427;-79
2023/09/16 09:22:43;;;;;;;13.88;11.27;;;23.40;99.90;;;;;;6179974;23;20041;-77
2023/09/16 09:25:11;;;;;;;13.77;12.00;;;23.40;99.90;;;;;;6180996;23;20528;-78
2023/09/16 09:27:38;;;;;;;14.25;11.93;;;23.50;99.90;;;;;;6181988;23;20021;-79
2023/09/16 09:30:07;;;;;;;18.52;15.07;;;23.70;99.90;;;;;;6181473;23;20025;-78
2023/09/16 09:32:37;;;;;;;20.30;15.60;;;24.00;99.90;;;;;;6181438;23;20125;-78
2023/09/16 09:35:11;;;;;;;19.23;14.52;;;24.30;99.90;;;;;;6156838;23;20021;-79
2023/09/16 09:37:38;;;;;;;16.48;13.57;;;24.60;99.90;;;;;;6181307;23;20341;-78
2023/09/16 09:40:09;;;;;;;16.88;15.07;;;24.60;99.90;;;;;;6181235;23;20025;-77
2023/09/16 09:42:41;;;;;;;16.38;14.25;;;24.60;99.90;;;;;;6189482;23;20373;-77
2023/09/16 09:45:09;;;;;;;16.98;15.18;;;24.50;99.90;;;;;;6187174;23;20055;-78
2023/09/16 09:47:38;;;;;;;15.38;13.27;;;24.40;99.90;;;;;;6181870;23;20061;-77
2023/09/16 09:50:07;;;;;;;18.88;15.45;;;24.50;99.90;;;;;;6181008;23;20378;-79
2023/09/16 09:52:36;;;;;;;22.38;14.70;;;24.70;99.90;;;;;;6180814;23;20088;-77
2023/09/16 09:55:09;;;;;;;17.98;16.15;;;25.00;99.90;;;;;;6180617;23;20431;-79
2023/09/16 09:57:41;;;;;;;17.27;15.47;;;25.30;99.90;;;;;;6157686;23;20013;-77
2023/09/16 10:00:18;;;;;;;18.52;16.15;;;25.30;99.90;;;;;;6180844;23;20445;-80
2023/09/16 10:02:52;;;;;;;16.02;14.02;;;25.30;99.90;;;;;;6179907;23;20025;-79
2023/09/16 10:05:21;;;;;;;17.73;13.73;;;25.50;99.90;;;;;;6181293;23;20028;-79
2023/09/16 10:07:51;;;;;;;18.95;15.10;;;25.70;99.90;;;;;;6157157;23;20481;-77
2023/09/16 10:10:22;;;;;;;35.25;31.50;;;25.50;99.90;;;;;;6181076;23;20013;-79
2023/09/16 10:12:52;;;;;;;21.23;18.58;;;25.60;99.90;;;;;;6181972;23;20013;-79
2023/09/16 10:15:24;;;;;;;23.63;20.20;;;25.80;99.90;;;;;;6181244;23;20096;-79
2023/09/16 10:17:52;;;;;;;26.30;20.20;;;25.90;99.90;;;;;;6181276;23;20080;-79
2023/09/16 10:20:20;;;;;;;28.40;24.80;;;25.90;99.90;;;;;;6181304;23;20021;-79
2023/09/16 10:22:50;;;;;;;39.92;26.27;;;26.00;99.90;;;;;;6179826;23;20079;-80
2023/09/16 10:25:20;;;;;;;22.77;20.42;;;25.90;99.90;;;;;;6181065;23;20127;-81
2023/09/16 10:27:55;;;;;;;55.50;32.03;;;26.10;99.90;;;;;;6181846;23;20327;-79
2023/09/16 10:30:32;;;;;;;26.88;24.02;;;26.20;99.90;;;;;;6181980;23;20523;-80
2023/09/16 10:33:15;;;;;;;23.35;20.63;;;26.30;99.90;;;;;;6183101;23;20017;-79
2023/09/16 10:35:43;;;;;;;22.45;20.13;;;26.60;99.90;;;;;;6151354;23;20021;-78
2023/09/16 10:38:15;;;;;;;29.20;25.15;;;26.60;99.90;;;;;;6175809;23;20091;-77
2023/09/16 10:40:45;;;;;;;25.08;20.25;;;26.50;99.90;;;;;;6151960;23;20038;-79
2023/09/16 10:43:17;;;;;;;21.27;19.15;;;26.40;99.90;;;;;;6176117;23;20022;-79
2023/09/16 10:45:49;;;;;;;20.77;18.60;;;26.40;99.90;;;;;;6152695;23;20022;-79
2023/09/16 10:48:22;;;;;;;21.98;19.67;;;26.60;99.90;;;;;;6165179;23;20034;-79
2023/09/16 10:51:06;;;;;;;29.10;24.65;;;26.90;99.90;;;;;;6176470;23;20021;-79
2023/09/16 10:53:45;;;;;;;25.70;18.27;;;27.10;99.90;;;;;;6177296;23;20055;-80
2023/09/16 10:56:18;;;;;;;25.20;20.95;;;27.10;99.90;;;;;;6147519;23;20052;-80
2023/09/16 10:58:48;;;;;;;26.45;23.52;;;27.00;99.90;;;;;;6155176;23;20052;-77
2023/09/16 11:01:26;;;;;;;22.60;16.92;;;26.80;99.90;;;;;;6155804;23;20028;-81
2023/09/16 11:03:56;;;;;;;20.65;18.45;;;26.40;99.90;;;;;;6179881;23;20068;-80
2023/09/16 11:06:26;;;;;;;28.75;25.42;;;26.20;99.90;;;;;;6180334;23;20026;-81
2023/09/16 11:08:58;;;;;;;20.08;16.33;;;26.10;99.90;;;;;;6154528;23;20099;-78
2023/09/16 11:11:28;;;;;;;17.42;14.82;;;26.10;99.90;;;;;;6176214;23;20060;-78
2023/09/16 11:13:58;;;;;;;15.43;12.20;;;26.30;99.90;;;;;;6176924;23;20027;-77
2023/09/16 11:16:28;;;;;;;17.55;13.73;;;26.30;99.90;;;;;;6176400;23;20033;-79
2023/09/16 11:18:56;;;;;;;14.93;12.23;;;26.20;99.90;;;;;;6185151;23;20022;-78
2023/09/16 11:21:25;;;;;;;19.05;14.68;;;26.10;99.90;;;;;;6181144;23;20025;-79
2023/09/16 11:23:57;;;;;;;13.75;12.25;;;25.80;99.90;;;;;;6153174;23;20030;-78
2023/09/16 11:26:24;;;;;;;14.45;12.30;;;25.80;99.90;;;;;;6169389;23;20241;-80
2023/09/16 11:28:53;;;;;;;15.35;13.77;;;25.90;99.90;;;;;;6168891;23;20029;-79
2023/09/16 11:31:24;;;;;;;14.93;13.43;;;26.20;99.90;;;;;;6192122;23;20171;-78
2023/09/16 11:34:00;;;;;;;14.60;13.10;;;26.50;99.90;;;;;;6174954;23;20022;-79
2023/09/16 11:36:36;;;;;;;14.70;13.20;;;26.70;99.90;;;;;;6171586;23;20033;-80
2023/09/16 11:39:18;;;;;;;17.05;13.82;;;26.80;99.90;;;;;;6185916;23;20017;-80
2023/09/16 11:42:09;;;;;;;;;;;;;;;;;;;;;
2023/09/16 11:44:48;;;;;;;13.40;12.02;;;27.30;99.90;;;;;;6196972;23;20026;-78
2023/09/16 11:47:24;;;;;;;17.00;11.80;;;27.70;99.90;;;;;;6171604;23;20021;-78
2023/09/16 11:50:08;;;;;;;11.75;10.60;;;27.70;99.90;;;;;;6180198;23;20085;-79
2023/09/16 11:52:50;;;;;;;10.68;8.95;;;27.30;99.90;;;;;;6169722;23;20183;-82
2023/09/16 11:55:23;;;;;;;12.48;9.15;;;26.20;99.90;;;;;;6160300;23;20446;-79
2023/09/16 11:57:52;;;;;;;11.52;9.65;;;25.50;99.90;;;;;;6156328;23;20422;-81
2023/09/16 12:00:26;;;;;;;12.23;9.40;;;24.80;99.90;;;;;;6179901;23;20029;-80
2023/09/16 12:02:56;;;;;;;13.82;9.50;;;24.80;99.90;;;;;;6179552;23;20034;-79
2023/09/16 12:05:25;;;;;;;12.13;9.77;;;24.50;99.90;;;;;;6177808;23;20168;-78
2023/09/16 12:07:52;;;;;;;13.07;10.85;;;24.50;99.90;;;;;;6152890;23;20528;-79
2023/09/16 12:10:22;;;;;;;15.07;11.13;;;24.50;99.90;;;;;;6150578;23;20022;-78
2023/09/16 12:12:52;;;;;;;15.57;12.20;;;24.70;99.90;;;;;;6175886;23;20021;-79
2023/09/16 12:18:13;;;;;;;13.48;11.73;;;24.70;99.90;;;;;;6170311;23;20084;-80
2023/09/16 12:20:41;;;;;;;14.95;12.00;;;24.80;99.90;;;;;;6177225;23;20458;-79
2023/09/16 12:23:17;;;;;;;11.63;10.50;;;25.00;99.90;;;;;;6163606;23;20029;-79
2023/09/16 12:25:46;;;;;;;12.98;11.60;;;25.30;99.90;;;;;;6175662;23;20025;-78
2023/09/16 12:28:20;;;;;;;13.82;12.43;;;25.40;99.90;;;;;;6150865;23;20041;-78
2023/09/16 12:30:50;;;;;;;13.48;12.07;;;25.40;99.90;;;;;;6152021;23;20017;-77
2023/09/16 12:33:19;;;;;;;13.40;10.80;;;25.50;99.90;;;;;;6174534;23;20021;-79
2023/09/16 12:35:47;;;;;;;12.68;10.20;;;25.50;99.90;;;;;;6173760;23;20347;-79
2023/09/16 12:38:16;;;;;;;12.10;10.90;;;25.70;99.90;;;;;;6174482;23;20084;-78
2023/09/16 12:40:46;;;;;;;13.35;11.10;;;25.60;99.90;;;;;;6174648;23;20034;-79
2023/09/16 12:43:14;;;;;;;15.82;14.23;;;25.70;99.90;;;;;;6174670;23;20414;-81
2023/09/16 12:45:45;;;;;;;16.52;12.93;;;25.70;99.90;;;;;;6175844;23;20333;-81
2023/09/16 12:48:16;;;;;;;15.52;14.00;;;25.80;99.90;;;;;;6174752;23;20045;-79
2023/09/16 12:50:45;;;;;;;13.65;12.25;;;26.00;99.90;;;;;;6174335;23;20029;-78
2023/09/16 12:53:13;;;;;;;13.15;11.68;;;26.10;99.90;;;;;;6165079;23;20223;-78